Дата Пункты Температура Давл., мм. Влажн., % Ветер Погодные явления
Воздуха Воды Направл. Скорость
26.04.19 06:00 Одесса 9.0 10.0 764 93 Пд-З 1 06 ГОДИН
26.04.19 03:00 Одесса 9.0 10.0 764 92 Пд 1 03 ГОДИНИ
25.04.19 09:00 Одесса 11.0 10.0 766 69 Пд-З 3 21 ГОДИНУ
25.04.19 06:00 Одесса 13.0 10.0 766 63 Пд 3 18 ГОДИН
25.04.19 03:00 Одесса 14.0 10.0 767 53 Пд 2 15 ГОДИН
25.04.19 12:00 Одесса 13.0 10.0 768 70 Пд-С 2 12 ГОДИН
25.04.19 09:00 Одесса 11.0 10.0 768 93 Пн 0 09 ГОДИН
25.04.19 06:00 Одесса 7.0 10.0 767 97 Пн 0 06 ГОДИН
25.04.19 03:00 Одесса 8.0 10.0 767 90 Пн 0 03 ГОДИНИ
24.04.19 09:00 Одесса 11.0 10.0 768 63 Пн 0 21 ГОДИНУ
24.04.19 06:00 Одесса 11.0 10.0 768 77 Пд 1 18 ГОДИН
24.04.19 03:00 Одесса 12.0 10.0 769 71 Пд-С 2 15 ГОДИН
24.04.19 12:00 Одесса 12.0 10.0 769 71 С 1 12 ГОДИН
24.04.19 09:00 Одесса 11.0 10.0 768 77 Пн-С 2 09 ГОДИН
24.04.19 06:00 Одесса 7.0 10.0 768 82 Пн 1 06 ГОДИН
24.04.19 03:00 Одесса 8.0 10.0 768 81 Пн 1 03 ГОДИНИ
23.04.19 09:00 Одесса 12.0 10.0 768 40 Пн 0 21 ГОДИНУ
23.04.19 06:00 Одесса 14.0 10.0 768 36 Пд 2 18 ГОДИН
23.04.19 03:00 Одесса 15.0 10.0 769 36 Пд 2 15 ГОДИН
23.04.19 12:00 Одесса 13.0 10.0 769 62 С 2 12 ГОДИН
Количество строк
1 2 3 4 5 6 7 8 9 10
Page 10 of 491